Terminal Aerodrome Forecast
Issued by NWS

Home | Current Version | Previous Version | Text Only | Print | Product List | Glossary On
Versions: 1 2 3 4 5 6 7 8 9 10 11 12 13 14 15 16 17 18 19 20 21 22
000
FTUS44 KSJT 142300
TAFJCT
TAF
KJCT 142326Z 1500/1524 12006KT P6SM BKN110
     FM150600 VRB03KT P6SM BKN020
     FM151500 16004KT P6SM SCT025=

USA.gov is the U.S. government's official web portal to all federal, state and local government web resources and services.